Time;durP1;ratioP1;P1;durP2;ratioP2;P2;SDS_P1;SDS_P2;PMS_P1;PMS_P2;Temp;Humidity;BMP_temperature;BMP_pressure;BME280_temperature;BME280_humidity;BME280_pressure;Samples;Min_cycle;Max_cycle;Signal;HPM_P1;HPM_P2
2022/05/25 00:02:44;;;;;;;8.20;5.20;;;;;;;;;;6322676;28;20043;-72
2022/05/25 00:05:46;;;;;;;8.07;5.57;;;;;;;;;;6323244;28;20200;-72
2022/05/25 00:08:49;;;;;;;7.80;5.75;;;;;;;;;;6320436;27;20044;-73
2022/05/25 00:11:50;;;;;;;8.70;5.88;;;;;;;;;;6323657;28;20052;-73
2022/05/25 00:14:52;;;;;;;10.27;5.97;;;;;;;;;;6320624;27;20101;-72
2022/05/25 00:17:54;;;;;;;6.80;4.85;;;;;;;;;;6319190;28;20056;-73
2022/05/25 00:20:55;;;;;;;13.20;6.25;;;;;;;;;;6319386;28;20044;-73
2022/05/25 00:23:59;;;;;;;8.48;6.05;;;;;;;;;;6320552;28;20051;-72
2022/05/25 00:27:00;;;;;;;12.98;5.80;;;;;;;;;;6319772;27;20050;-73
2022/05/25 00:30:02;;;;;;;8.85;5.75;;;;;;;;;;6319326;27;20048;-73
2022/05/25 00:33:04;;;;;;;8.20;5.93;;;;;;;;;;6317747;28;20048;-71
2022/05/25 00:36:06;;;;;;;10.18;6.53;;;;;;;;;;6319125;28;20063;-73
2022/05/25 00:39:09;;;;;;;11.45;6.07;;;;;;;;;;6322087;28;20048;-73
2022/05/25 00:42:12;;;;;;;8.45;6.50;;;;;;;;;;6319712;28;20133;-73
2022/05/25 00:45:17;;;;;;;11.93;6.57;;;;;;;;;;6321336;28;20100;-73
2022/05/25 00:48:22;;;;;;;9.25;6.20;;;;;;;;;;6321233;28;20059;-73
2022/05/25 00:51:28;;;;;;;8.30;5.82;;;;;;;;;;6322000;28;20064;-73
2022/05/25 00:54:34;;;;;;;8.52;6.45;;;;;;;;;;6319488;28;20044;-70
2022/05/25 00:57:39;;;;;;;8.15;6.20;;;;;;;;;;6319476;28;20227;-73
2022/05/25 01:00:40;;;;;;;7.57;4.93;;;;;;;;;;6321273;28;20292;-70
2022/05/25 01:03:42;;;;;;;6.60;4.90;;;;;;;;;;6321126;28;20051;-72
2022/05/25 01:06:54;;;;;;;6.65;4.40;;;;;;;;;;6318024;28;20158;-71
2022/05/25 01:10:07;;;;;;;5.65;4.63;;;;;;;;;;6323996;28;20338;-72
2022/05/25 01:13:16;;;;;;;6.25;4.80;;;;;;;;;;6320114;27;20037;-73
2022/05/25 01:16:26;;;;;;;6.15;3.90;;;;;;;;;;6315927;28;20056;-72
2022/05/25 01:19:44;;;;;;;5.93;4.30;;;;;;;;;;6318489;28;20220;-71
2022/05/25 01:23:11;;;;;;;6.35;3.88;;;;;;;;;;6317869;28;20040;-71
2022/05/25 01:26:37;;;;;;;5.22;4.03;;;;;;;;;;6308870;28;20060;-71
2022/05/25 01:29:48;;;;;;;5.50;3.70;;;;;;;;;;6319284;28;20052;-72
2022/05/25 01:32:59;;;;;;;5.55;3.70;;;;;;;;;;6320507;28;20052;-72
2022/05/25 01:36:03;;;;;;;6.82;3.88;;;;;;;;;;6317443;28;20200;-72
2022/05/25 01:39:06;;;;;;;6.35;4.38;;;;;;;;;;6320555;27;20048;-72
2022/05/25 01:42:13;;;;;;;7.40;4.07;;;;;;;;;;6320036;28;20063;-72
2022/05/25 01:45:17;;;;;;;6.68;4.00;;;;;;;;;;6316805;28;20192;-71
2022/05/25 01:48:21;;;;;;;5.03;3.90;;;;;;;;;;6324767;27;20048;-72
2022/05/25 01:51:23;;;;;;;;;;;;;;;;;;6325365;27;20063;-70
2022/05/25 01:54:31;;;;;;;4.63;3.92;;;;;;;;;;6326010;28;19916;-71
2022/05/25 01:57:34;;;;;;;7.13;4.18;;;;;;;;;;6325558;28;20803;-72
2022/05/25 02:00:40;;;;;;;6.22;4.22;;;;;;;;;;6326749;27;20047;-72
2022/05/25 02:07:15;;;;;;;7.95;4.05;;;;;;;;;;6325016;28;20445;-71
2022/05/25 02:10:24;;;;;;;5.18;4.18;;;;;;;;;;6323054;28;20055;-72
2022/05/25 02:13:35;;;;;;;5.53;4.20;;;;;;;;;;6321768;28;21681;-71
2022/05/25 02:16:45;;;;;;;5.43;4.32;;;;;;;;;;6322751;28;20052;-71
2022/05/25 02:19:55;;;;;;;6.47;4.78;;;;;;;;;;6321022;28;20070;-72
2022/05/25 02:23:02;;;;;;;7.50;4.47;;;;;;;;;;6320583;28;20048;-72
2022/05/25 02:26:07;;;;;;;7.55;4.55;;;;;;;;;;6321433;28;20056;-72
2022/05/25 02:29:12;;;;;;;7.07;4.88;;;;;;;;;;6321419;28;20455;-72
2022/05/25 02:32:18;;;;;;;8.48;4.15;;;;;;;;;;6324497;28;20101;-72
2022/05/25 02:35:21;;;;;;;5.25;4.22;;;;;;;;;;6323637;28;20056;-72
2022/05/25 02:38:24;;;;;;;5.07;4.28;;;;;;;;;;6320920;28;20071;-72
2022/05/25 02:41:30;;;;;;;6.63;4.00;;;;;;;;;;6328660;28;20087;-72
2022/05/25 02:44:32;;;;;;;6.05;4.22;;;;;;;;;;6324137;28;20054;-72
2022/05/25 02:47:35;;;;;;;7.43;4.32;;;;;;;;;;6321332;28;20358;-71
2022/05/25 02:50:37;;;;;;;4.45;3.78;;;;;;;;;;6318360;28;20234;-72
2022/05/25 02:53:39;;;;;;;7.47;4.70;;;;;;;;;;6321794;28;20052;-71
2022/05/25 02:56:40;;;;;;;7.25;4.88;;;;;;;;;;6320717;28;20059;-71
2022/05/25 02:59:42;;;;;;;6.68;5.10;;;;;;;;;;6323909;28;20052;-72
2022/05/25 03:02:45;;;;;;;6.57;5.15;;;;;;;;;;6317143;28;20126;-71
2022/05/25 03:05:47;;;;;;;5.70;4.85;;;;;;;;;;6322831;28;20064;-72
2022/05/25 03:08:49;;;;;;;6.18;4.65;;;;;;;;;;6321517;27;20323;-71
2022/05/25 03:11:53;;;;;;;7.70;4.70;;;;;;;;;;6321685;28;20055;-72
2022/05/25 03:14:54;;;;;;;9.00;5.22;;;;;;;;;;6317985;27;20059;-72
2022/05/25 03:17:57;;;;;;;8.60;6.25;;;;;;;;;;6318451;27;20408;-72
2022/05/25 03:20:59;;;;;;;8.48;5.22;;;;;;;;;;6318657;28;20244;-72
2022/05/25 03:24:00;;;;;;;7.95;5.45;;;;;;;;;;6321006;28;20105;-72
2022/05/25 03:27:02;;;;;;;6.85;5.32;;;;;;;;;;6317875;28;20053;-71
2022/05/25 03:30:06;;;;;;;7.95;4.95;;;;;;;;;;6321218;28;20564;-72
2022/05/25 03:33:09;;;;;;;5.93;5.28;;;;;;;;;;6320988;28;20052;-72
2022/05/25 03:36:10;;;;;;;8.05;5.70;;;;;;;;;;6319154;27;20063;-72
2022/05/25 03:39:12;;;;;;;7.90;5.63;;;;;;;;;;6318847;28;20052;-68
2022/05/25 03:42:15;;;;;;;5.70;4.82;;;;;;;;;;6317347;28;20052;-71
2022/05/25 03:45:17;;;;;;;7.25;5.13;;;;;;;;;;6319450;28;20072;-72
2022/05/25 03:48:20;;;;;;;8.32;6.00;;;;;;;;;;6315685;28;20052;-71
2022/05/25 03:51:22;;;;;;;9.00;5.97;;;;;;;;;;6320253;28;20068;-73
2022/05/25 03:54:24;;;;;;;6.95;5.93;;;;;;;;;;6318616;28;20090;-73
2022/05/25 03:57:25;;;;;;;7.88;5.50;;;;;;;;;;6323116;28;20071;-73
2022/05/25 04:00:27;;;;;;;11.98;6.60;;;;;;;;;;6316741;28;20119;-73
2022/05/25 04:03:31;;;;;;;7.45;5.80;;;;;;;;;;6316670;27;20048;-72
2022/05/25 04:06:33;;;;;;;8.10;6.00;;;;;;;;;;6319799;27;20270;-72
2022/05/25 04:09:34;;;;;;;7.85;5.53;;;;;;;;;;6317053;28;20107;-72
2022/05/25 04:12:36;;;;;;;9.90;5.38;;;;;;;;;;6319522;28;20051;-72
2022/05/25 04:15:38;;;;;;;10.68;6.00;;;;;;;;;;6318885;28;20048;-72
2022/05/25 04:18:41;;;;;;;8.73;5.55;;;;;;;;;;6317508;27;20040;-72
2022/05/25 04:21:43;;;;;;;9.57;5.97;;;;;;;;;;6317376;28;20231;-72
2022/05/25 04:24:44;;;;;;;8.10;6.20;;;;;;;;;;6317731;27;20048;-72
2022/05/25 04:27:47;;;;;;;12.75;6.68;;;;;;;;;;6319427;28;20052;-72
2022/05/25 04:30:49;;;;;;;9.80;6.70;;;;;;;;;;6318520;27;20339;-72
2022/05/25 04:33:52;;;;;;;10.30;6.55;;;;;;;;;;6320169;27;20112;-72
2022/05/25 04:36:54;;;;;;;9.73;7.30;;;;;;;;;;6319903;28;20090;-71
2022/05/25 04:39:55;;;;;;;9.30;7.13;;;;;;;;;;6315148;27;20095;-71
2022/05/25 04:42:59;;;;;;;10.10;7.75;;;;;;;;;;6316711;28;20041;-71
2022/05/25 04:46:01;;;;;;;11.75;7.60;;;;;;;;;;6323534;28;20121;-72
2022/05/25 04:49:04;;;;;;;12.03;8.60;;;;;;;;;;6317771;28;20044;-71
2022/05/25 04:52:06;;;;;;;11.05;8.32;;;;;;;;;;6316761;28;20044;-72
2022/05/25 04:57:19;;;;;;;11.50;9.73;;;;;;;;;;6320554;28;20056;-71
2022/05/25 04:58:33;;;;;;;11.50;8.38;;;;;;;;;;6319770;28;20282;-71
2022/05/25 05:01:34;;;;;;;10.15;8.00;;;;;;;;;;6317927;28;20048;-71
2022/05/25 05:04:38;;;;;;;12.68;9.38;;;;;;;;;;6317256;28;20101;-71
2022/05/25 05:07:40;;;;;;;9.65;8.48;;;;;;;;;;6317363;28;20056;-71
2022/05/25 05:10:41;;;;;;;15.52;8.75;;;;;;;;;;6317654;27;20112;-71
2022/05/25 05:13:43;;;;;;;10.35;8.25;;;;;;;;;;6321189;28;20322;-72
2022/05/25 05:16:45;;;;;;;15.48;9.88;;;;;;;;;;6317513;28;20059;-71
2022/05/25 05:19:48;;;;;;;10.82;8.65;;;;;;;;;;6318719;28;20048;-72
2022/05/25 05:22:50;;;;;;;13.63;9.63;;;;;;;;;;6323513;28;20150;-71
2022/05/25 05:25:51;;;;;;;13.43;10.00;;;;;;;;;;6323356;28;20251;-71
2022/05/25 05:28:54;;;;;;;13.38;8.13;;;;;;;;;;6320013;28;20277;-71
2022/05/25 05:31:55;;;;;;;12.30;9.10;;;;;;;;;;6324994;28;20052;-71
2022/05/25 05:34:59;;;;;;;11.93;8.45;;;;;;;;;;6322988;27;20078;-71
2022/05/25 05:38:01;;;;;;;9.80;7.88;;;;;;;;;;6323480;27;20053;-72
2022/05/25 05:41:02;;;;;;;10.32;7.82;;;;;;;;;;6324845;27;20247;-71
2022/05/25 05:44:05;;;;;;;14.75;7.65;;;;;;;;;;6321625;28;20327;-72
2022/05/25 05:47:09;;;;;;;9.82;7.63;;;;;;;;;;6323444;28;20056;-71
2022/05/25 05:50:13;;;;;;;9.23;7.25;;;;;;;;;;6323825;28;20040;-71
2022/05/25 05:53:15;;;;;;;10.80;8.13;;;;;;;;;;6321961;28;20056;-71
2022/05/25 05:56:18;;;;;;;8.10;6.72;;;;;;;;;;6323847;28;20043;-71
2022/05/25 05:59:20;;;;;;;9.70;7.28;;;;;;;;;;6321147;27;20050;-71
2022/05/25 06:02:22;;;;;;;12.70;7.80;;;;;;;;;;6322180;28;20074;-71
2022/05/25 06:05:25;;;;;;;9.05;7.10;;;;;;;;;;6319634;27;20071;-71
2022/05/25 06:08:29;;;;;;;11.27;8.13;;;;;;;;;;6319215;27;20048;-71
2022/05/25 06:11:32;;;;;;;9.77;6.88;;;;;;;;;;6320385;27;20052;-72
2022/05/25 06:14:34;;;;;;;11.70;6.82;;;;;;;;;;6320591;27;20102;-72
2022/05/25 06:20:56;;;;;;;8.25;6.55;;;;;;;;;;6323599;27;20064;-71
2022/05/25 06:23:58;;;;;;;9.68;7.05;;;;;;;;;;6324370;28;20048;-72
2022/05/25 06:27:00;;;;;;;8.80;6.53;;;;;;;;;;6317554;28;20040;-72
2022/05/25 06:30:02;;;;;;;9.77;7.05;;;;;;;;;;6315891;28;20072;-72
2022/05/25 06:33:05;;;;;;;10.27;7.40;;;;;;;;;;6327669;28;20048;-71
2022/05/25 06:36:17;;;;;;;11.23;6.97;;;;;;;;;;6323319;27;20052;-71
2022/05/25 06:39:18;;;;;;;119.63;73.57;;;;;;;;;;6324107;28;20055;-71
2022/05/25 06:42:20;;;;;;;14.25;9.68;;;;;;;;;;6324349;27;20085;-72
2022/05/25 06:45:22;;;;;;;44.20;22.33;;;;;;;;;;6321377;28;20075;-72
2022/05/25 06:48:24;;;;;;;23.05;12.77;;;;;;;;;;6320369;27;20105;-71
2022/05/25 06:51:28;;;;;;;40.05;25.23;;;;;;;;;;6322447;28;20052;-72
2022/05/25 06:54:30;;;;;;;13.45;8.43;;;;;;;;;;6324537;28;20335;-73
2022/05/25 06:57:32;;;;;;;60.70;35.70;;;;;;;;;;6323903;28;20059;-72
2022/05/25 07:00:34;;;;;;;37.97;23.45;;;;;;;;;;6324362;28;20232;-71
2022/05/25 07:03:38;;;;;;;48.10;31.00;;;;;;;;;;6323338;27;20131;-71
2022/05/25 07:06:41;;;;;;;24.33;14.57;;;;;;;;;;6324569;27;20052;-72
2022/05/25 07:09:43;;;;;;;11.27;6.75;;;;;;;;;;6322481;28;20047;-72
2022/05/25 07:12:44;;;;;;;10.45;6.82;;;;;;;;;;6322054;28;20051;-72
2022/05/25 07:15:46;;;;;;;13.60;8.02;;;;;;;;;;6325538;27;20330;-72
2022/05/25 07:18:48;;;;;;;10.18;7.28;;;;;;;;;;6321323;28;20109;-72
2022/05/25 07:21:51;;;;;;;9.40;7.25;;;;;;;;;;6319675;27;20098;-72
2022/05/25 07:24:53;;;;;;;9.50;7.43;;;;;;;;;;6319809;27;20053;-72
2022/05/25 07:27:54;;;;;;;9.63;7.15;;;;;;;;;;6319248;27;20606;-72
2022/05/25 07:31:08;;;;;;;13.20;7.95;;;;;;;;;;6316630;27;20051;-72
2022/05/25 07:34:12;;;;;;;10.18;7.47;;;;;;;;;;6323156;28;20044;-72
2022/05/25 07:37:18;;;;;;;14.75;6.65;;;;;;;;;;6320517;28;20331;-72
2022/05/25 07:40:22;;;;;;;8.93;6.30;;;;;;;;;;6318634;28;20050;-72
2022/05/25 07:43:24;;;;;;;9.00;6.10;;;;;;;;;;6317354;28;20327;-73
2022/05/25 07:46:27;;;;;;;9.77;6.35;;;;;;;;;;6320444;28;20089;-73
2022/05/25 07:49:29;;;;;;;7.47;5.47;;;;;;;;;;6320955;28;20040;-72
2022/05/25 07:52:35;;;;;;;8.73;6.15;;;;;;;;;;6319582;28;20048;-73
2022/05/25 07:55:36;;;;;;;7.32;5.60;;;;;;;;;;6320118;28;20056;-72
2022/05/25 07:58:38;;;;;;;7.43;5.45;;;;;;;;;;6316605;28;20047;-72
2022/05/25 08:08:22;;;;;;;8.18;4.35;;;;;;;;;;6319806;28;20043;-72
2022/05/25 08:11:25;;;;;;;9.55;3.80;;;;;;;;;;6321230;28;20048;-73
2022/05/25 08:14:27;;;;;;;7.07;4.50;;;;;;;;;;6317025;28;20106;-72
2022/05/25 08:17:29;;;;;;;6.03;3.88;;;;;;;;;;6319923;28;20052;-72
2022/05/25 08:20:31;;;;;;;6.53;3.45;;;;;;;;;;6320588;28;20043;-71
2022/05/25 08:23:34;;;;;;;8.85;4.00;;;;;;;;;;6322171;28;20335;-71
2022/05/25 08:26:35;;;;;;;6.45;3.40;;;;;;;;;;6317086;28;20330;-71
2022/05/25 08:29:37;;;;;;;5.13;3.00;;;;;;;;;;6320794;28;20241;-71
2022/05/25 08:32:39;;;;;;;6.53;3.53;;;;;;;;;;6315964;28;20342;-71
2022/05/25 08:35:40;;;;;;;3.75;2.92;;;;;;;;;;6317954;28;20201;-73
2022/05/25 08:38:43;;;;;;;32.03;23.95;;;;;;;;;;6315366;28;20052;-73
2022/05/25 08:41:45;;;;;;;49.20;41.13;;;;;;;;;;6318926;28;20054;-72
2022/05/25 08:44:49;;;;;;;22.05;15.98;;;;;;;;;;6317568;28;20090;-73
2022/05/25 08:47:51;;;;;;;;;;;;;;;;;;6319552;28;20048;-72
2022/05/25 08:50:59;;;;;;;4.85;2.65;;;;;;;;;;6319457;27;19935;-72
2022/05/25 08:54:02;;;;;;;4.55;2.80;;;;;;;;;;6320764;28;20107;-72
2022/05/25 08:57:06;;;;;;;4.85;2.50;;;;;;;;;;6324745;28;20083;-72
2022/05/25 09:00:10;;;;;;;6.78;3.40;;;;;;;;;;6323966;28;20045;-72
2022/05/25 09:03:17;;;;;;;6.68;2.83;;;;;;;;;;6324900;28;20044;-73
2022/05/25 09:06:29;;;;;;;4.13;2.78;;;;;;;;;;6319319;28;20056;-72
2022/05/25 09:09:38;;;;;;;5.22;2.75;;;;;;;;;;6321069;28;20307;-73
2022/05/25 09:12:42;;;;;;;6.70;2.88;;;;;;;;;;6322176;28;20048;-73
2022/05/25 09:19:03;;;;;;;4.18;2.50;;;;;;;;;;6324090;28;20067;-73
2022/05/25 09:22:08;;;;;;;6.18;2.58;;;;;;;;;;6321130;28;20128;-73
2022/05/25 09:25:13;;;;;;;5.45;2.20;;;;;;;;;;6323348;28;20052;-72
2022/05/25 09:28:18;;;;;;;4.18;2.85;;;;;;;;;;6324643;27;20342;-72
2022/05/25 09:31:24;;;;;;;5.57;2.42;;;;;;;;;;6325537;28;20052;-71
2022/05/25 09:34:37;;;;;;;4.95;2.75;;;;;;;;;;6326609;28;20145;-72
2022/05/25 09:37:44;;;;;;;5.95;2.72;;;;;;;;;;6320768;28;20184;-72
2022/05/25 09:40:51;;;;;;;8.70;3.30;;;;;;;;;;6322483;27;20059;-73
2022/05/25 09:43:54;;;;;;;5.88;3.05;;;;;;;;;;6323985;28;20040;-72
2022/05/25 09:46:59;;;;;;;18.92;15.20;;;;;;;;;;6319819;27;20044;-71
2022/05/25 09:50:01;;;;;;;9.07;5.68;;;;;;;;;;6325586;27;20115;-70
2022/05/25 09:53:04;;;;;;;26.20;23.13;;;;;;;;;;6323544;28;20082;-69
2022/05/25 09:56:11;;;;;;;12.10;4.78;;;;;;;;;;6322987;28;20047;-73
2022/05/25 09:59:21;;;;;;;6.68;2.90;;;;;;;;;;6324871;28;20044;-73
2022/05/25 10:02:26;;;;;;;6.13;2.92;;;;;;;;;;6322290;27;20079;-71
2022/05/25 10:05:30;;;;;;;6.45;3.05;;;;;;;;;;6323032;27;20060;-74
2022/05/25 10:08:36;;;;;;;4.55;2.90;;;;;;;;;;6322501;28;20089;-73
2022/05/25 10:11:44;;;;;;;5.95;2.90;;;;;;;;;;6322053;27;20052;-73
2022/05/25 10:14:56;;;;;;;6.40;3.40;;;;;;;;;;6321733;28;20048;-73
2022/05/25 10:17:59;;;;;;;4.45;2.67;;;;;;;;;;6322071;28;20100;-74
2022/05/25 10:21:00;;;;;;;5.22;3.10;;;;;;;;;;6320675;28;20113;-73
2022/05/25 10:24:04;;;;;;;6.55;3.58;;;;;;;;;;6321985;28;20048;-74
2022/05/25 10:27:21;;;;;;;6.28;3.30;;;;;;;;;;6319059;28;20048;-74
2022/05/25 10:37:17;;;;;;;5.82;2.88;;;;;;;;;;6321296;28;20127;-74
2022/05/25 10:40:23;;;;;;;4.88;3.10;;;;;;;;;;6320698;28;20063;-74
2022/05/25 10:43:28;;;;;;;6.18;3.65;;;;;;;;;;6320750;28;20086;-73
2022/05/25 10:46:30;;;;;;;10.50;3.55;;;;;;;;;;6320524;28;20131;-73
2022/05/25 10:49:35;;;;;;;6.43;3.10;;;;;;;;;;6318881;28;20295;-74
2022/05/25 10:52:39;;;;;;;5.20;2.90;;;;;;;;;;6320466;28;20052;-74
2022/05/25 10:55:47;;;;;;;5.90;2.83;;;;;;;;;;6320291;28;20074;-73
2022/05/25 10:58:59;;;;;;;7.50;2.63;;;;;;;;;;6320054;28;20234;-73
2022/05/25 11:02:16;;;;;;;10.13;3.17;;;;;;;;;;6317950;28;20060;-74
2022/05/25 11:05:24;;;;;;;5.72;3.08;;;;;;;;;;6317994;28;20056;-73
2022/05/25 11:08:35;;;;;;;7.07;2.95;;;;;;;;;;6321191;28;20115;-73
2022/05/25 11:11:44;;;;;;;9.93;3.80;;;;;;;;;;6317588;28;20055;-73
2022/05/25 11:14:57;;;;;;;6.22;3.30;;;;;;;;;;6317551;28;20067;-73
2022/05/25 11:18:07;;;;;;;7.78;2.95;;;;;;;;;;6318040;28;20070;-73
2022/05/25 11:21:19;;;;;;;5.82;3.22;;;;;;;;;;6317936;27;20177;-73
2022/05/25 11:24:33;;;;;;;5.72;2.70;;;;;;;;;;6318447;28;20119;-73
2022/05/25 11:27:49;;;;;;;5.25;2.80;;;;;;;;;;6321804;28;20051;-73
2022/05/25 11:31:06;;;;;;;6.88;2.75;;;;;;;;;;6318208;28;20043;-73
2022/05/25 11:34:15;;;;;;;5.00;3.10;;;;;;;;;;6317958;28;20076;-73
2022/05/25 11:37:27;;;;;;;5.25;3.00;;;;;;;;;;6317968;28;20052;-74
2022/05/25 11:40:39;;;;;;;5.38;2.85;;;;;;;;;;6315381;28;20143;-73
2022/05/25 11:43:54;;;;;;;6.78;2.92;;;;;;;;;;6317213;28;20145;-73
2022/05/25 11:47:02;;;;;;;7.25;2.90;;;;;;;;;;6313600;28;20044;-73
2022/05/25 11:50:25;;;;;;;4.25;2.90;;;;;;;;;;6320739;27;20093;-72
2022/05/25 11:53:55;;;;;;;6.00;2.97;;;;;;;;;;6309559;28;20059;-73
2022/05/25 11:57:02;;;;;;;4.18;2.67;;;;;;;;;;6305540;28;20279;-73
2022/05/25 12:00:09;;;;;;;5.75;3.05;;;;;;;;;;6309618;28;20101;-73
2022/05/25 12:03:31;;;;;;;5.57;2.97;;;;;;;;;;6315072;28;20057;-73
2022/05/25 12:06:52;;;;;;;4.68;2.50;;;;;;;;;;6309900;28;20056;-72
2022/05/25 12:10:19;;;;;;;5.40;2.80;;;;;;;;;;6312406;28;20059;-72
2022/05/25 12:13:26;;;;;;;5.72;3.05;;;;;;;;;;6308315;28;20047;-73
2022/05/25 12:16:35;;;;;;;5.63;3.05;;;;;;;;;;6311868;28;20047;-72
2022/05/25 12:19:38;;;;;;;6.47;2.80;;;;;;;;;;6314474;28;20056;-72
2022/05/25 12:22:53;;;;;;;4.80;3.10;;;;;;;;;;6311967;28;20281;-72
2022/05/25 12:25:57;;;;;;;9.23;3.20;;;;;;;;;;6306835;28;20051;-73
2022/05/25 12:29:07;;;;;;;4.57;2.92;;;;;;;;;;6319878;28;20066;-72
2022/05/25 12:32:09;;;;;;;4.30;2.80;;;;;;;;;;6313938;28;20420;-73
2022/05/25 12:35:15;;;;;;;6.47;2.75;;;;;;;;;;6314878;28;20055;-73
2022/05/25 12:38:18;;;;;;;5.03;3.10;;;;;;;;;;6313000;28;20045;-72
2022/05/25 12:41:31;;;;;;;4.30;2.60;;;;;;;;;;6310217;28;20052;-72
2022/05/25 12:51:35;;;;;;;6.40;2.80;;;;;;;;;;6255103;28;20041;-73
2022/05/25 12:54:43;;;;;;;5.35;2.53;;;;;;;;;;6260412;28;20091;-72
2022/05/25 12:57:48;;;;;;;6.50;2.88;;;;;;;;;;6263924;28;20057;-71
2022/05/25 13:01:02;;;;;;;5.10;2.63;;;;;;;;;;6263506;28;20124;-73
2022/05/25 13:04:42;;;;;;;6.70;3.03;;;;;;;;;;6256245;28;20057;-71
2022/05/25 13:07:46;;;;;;;6.45;3.08;;;;;;;;;;6250061;28;20056;-72
2022/05/25 13:11:01;;;;;;;4.82;2.72;;;;;;;;;;6255730;28;20337;-71
2022/05/25 13:14:06;;;;;;;5.43;2.90;;;;;;;;;;6261809;28;20044;-71
2022/05/25 13:17:08;;;;;;;23.25;16.98;;;;;;;;;;6260830;28;20045;-72
2022/05/25 13:20:14;;;;;;;9.48;5.95;;;;;;;;;;6264618;28;20045;-71
2022/05/25 13:23:53;;;;;;;95.10;64.30;;;;;;;;;;6269215;28;20282;-71
2022/05/25 13:27:25;;;;;;;44.70;27.08;;;;;;;;;;6310527;28;20044;-71
2022/05/25 13:30:31;;;;;;;18.85;11.80;;;;;;;;;;6324074;28;21104;-72
2022/05/25 13:33:38;;;;;;;453.33;329.35;;;;;;;;;;6316207;28;20052;-71
2022/05/25 13:36:44;;;;;;;24.92;16.75;;;;;;;;;;6317838;28;20044;-71
2022/05/25 13:39:46;;;;;;;80.65;51.92;;;;;;;;;;6315468;28;20105;-71
2022/05/25 13:42:50;;;;;;;9.75;4.88;;;;;;;;;;6318876;28;20327;-72
2022/05/25 13:45:52;;;;;;;5.88;3.15;;;;;;;;;;6318782;28;20353;-74
2022/05/25 13:48:54;;;;;;;7.10;3.10;;;;;;;;;;6323495;28;20043;-75
2022/05/25 13:52:19;;;;;;;7.78;3.05;;;;;;;;;;6313316;28;20055;-75
2022/05/25 13:55:26;;;;;;;8.55;3.50;;;;;;;;;;6323220;28;20090;-75
2022/05/25 13:58:30;;;;;;;12.05;7.22;;;;;;;;;;6322796;28;20056;-74
2022/05/25 14:01:31;;;;;;;17.55;12.07;;;;;;;;;;6322856;28;20836;-74
2022/05/25 14:04:33;;;;;;;7.18;4.40;;;;;;;;;;6326219;28;20086;-73
2022/05/25 14:07:38;;;;;;;5.47;3.50;;;;;;;;;;6316178;28;20067;-71
2022/05/25 14:10:57;;;;;;;6.15;3.30;;;;;;;;;;6320096;28;20231;-72
2022/05/25 14:14:00;;;;;;;6.50;3.10;;;;;;;;;;6319267;28;20060;-72
2022/05/25 14:17:04;;;;;;;5.03;3.35;;;;;;;;;;6318834;27;20044;-72
2022/05/25 14:20:15;;;;;;;6.25;3.38;;;;;;;;;;6311901;28;20255;-72
2022/05/25 14:23:18;;;;;;;7.78;3.20;;;;;;;;;;6320058;28;20331;-72
2022/05/25 14:26:24;;;;;;;8.77;3.85;;;;;;;;;;6313053;28;20052;-72
2022/05/25 14:29:30;;;;;;;6.72;3.67;;;;;;;;;;6313457;28;20053;-72
2022/05/25 14:32:33;;;;;;;6.68;3.50;;;;;;;;;;6319482;28;20047;-73
2022/05/25 14:35:36;;;;;;;6.13;2.88;;;;;;;;;;6316334;28;20237;-72
2022/05/25 14:38:39;;;;;;;7.03;3.30;;;;;;;;;;6316068;28;20040;-73
2022/05/25 14:41:48;;;;;;;5.18;3.50;;;;;;;;;;6316863;28;20052;-73
2022/05/25 14:44:54;;;;;;;5.95;3.35;;;;;;;;;;6317287;28;20055;-73
2022/05/25 14:48:05;;;;;;;6.85;3.70;;;;;;;;;;6313849;28;20111;-74
2022/05/25 14:51:07;;;;;;;13.98;4.40;;;;;;;;;;6308408;28;20043;-74
2022/05/25 14:54:12;;;;;;;13.63;3.13;;;;;;;;;;6308021;28;20064;-74
2022/05/25 14:57:14;;;;;;;6.95;3.45;;;;;;;;;;6320087;28;20051;-74
2022/05/25 15:00:22;;;;;;;8.55;3.38;;;;;;;;;;6320351;28;20044;-74
2022/05/25 15:03:29;;;;;;;6.18;3.40;;;;;;;;;;6322674;28;20060;-74
2022/05/25 15:06:56;;;;;;;6.70;3.60;;;;;;;;;;6320610;28;20059;-74
2022/05/25 15:10:10;;;;;;;6.82;3.10;;;;;;;;;;6320965;28;20242;-74
2022/05/25 15:13:24;;;;;;;11.07;4.38;;;;;;;;;;6320233;28;20040;-74
2022/05/25 15:20:09;;;;;;;27.23;19.95;;;;;;;;;;6247614;28;20056;-72
2022/05/25 15:23:16;;;;;;;8.15;4.00;;;;;;;;;;6242251;28;20060;-73
2022/05/25 15:26:23;;;;;;;12.90;3.60;;;;;;;;;;6242917;28;20068;-72
2022/05/25 15:29:31;;;;;;;6.28;3.08;;;;;;;;;;6242769;28;20264;-73
2022/05/25 15:32:34;;;;;;;10.63;4.03;;;;;;;;;;6243877;28;20064;-72
2022/05/25 15:35:36;;;;;;;8.52;3.50;;;;;;;;;;6246262;28;20108;-72
2022/05/25 15:38:38;;;;;;;5.93;3.20;;;;;;;;;;6242761;28;20049;-72
2022/05/25 15:41:40;;;;;;;6.55;3.60;;;;;;;;;;6241266;28;20116;-73
2022/05/25 15:44:42;;;;;;;6.90;3.25;;;;;;;;;;6239577;28;20099;-73
2022/05/25 15:47:45;;;;;;;6.32;3.60;;;;;;;;;;6239983;28;20049;-74
2022/05/25 15:50:49;;;;;;;;;;;;;;;;;;6240491;28;20107;-74
2022/05/25 15:53:50;;;;;;;;;;;;;;;;;;6241542;28;20047;-74
2022/05/25 15:56:53;;;;;;;5.80;3.70;;;;;;;;;;6314131;28;19986;-74
2022/05/25 15:59:55;;;;;;;4.75;3.28;;;;;;;;;;6320084;28;20109;-74
2022/05/25 16:02:58;;;;;;;7.18;3.65;;;;;;;;;;6317115;28;20238;-74
2022/05/25 16:06:01;;;;;;;4.78;3.08;;;;;;;;;;6315564;28;20119;-72
2022/05/25 16:09:14;;;;;;;8.07;3.35;;;;;;;;;;6317322;28;20043;-72
2022/05/25 16:12:16;;;;;;;8.20;4.47;;;;;;;;;;6313268;28;20056;-71
2022/05/25 16:15:18;;;;;;;7.70;3.33;;;;;;;;;;6314800;28;20043;-73
2022/05/25 16:18:21;;;;;;;5.95;3.60;;;;;;;;;;6315018;28;20228;-72
2022/05/25 16:21:23;;;;;;;6.50;3.97;;;;;;;;;;6312381;28;20048;-72
2022/05/25 16:24:25;;;;;;;6.47;3.88;;;;;;;;;;6313925;28;20063;-72
2022/05/25 16:27:27;;;;;;;7.43;3.70;;;;;;;;;;6315864;28;20054;-74
2022/05/25 16:30:28;;;;;;;6.53;3.42;;;;;;;;;;6317571;28;20590;-73
2022/05/25 16:33:31;;;;;;;7.40;4.32;;;;;;;;;;6323681;28;20069;-72
2022/05/25 16:36:34;;;;;;;;;;;;;;;;;;6320074;28;20363;-74
2022/05/25 16:39:36;;;;;;;6.03;4.10;;;;;;;;;;6318876;28;19931;-74
2022/05/25 16:42:38;;;;;;;9.35;3.75;;;;;;;;;;6317411;28;20049;-74
2022/05/25 16:45:40;;;;;;;6.65;3.30;;;;;;;;;;6317694;28;20054;-74
2022/05/25 16:48:43;;;;;;;10.32;4.28;;;;;;;;;;6317392;28;20044;-74
2022/05/25 16:51:44;;;;;;;;;;;;;;;;;;6318071;27;20048;-74
2022/05/25 16:54:46;;;;;;;4.47;3.83;;;;;;;;;;6318584;28;19924;-74
2022/05/25 16:57:48;;;;;;;7.28;3.90;;;;;;;;;;6321649;28;20063;-75
2022/05/25 17:00:51;;;;;;;5.70;3.60;;;;;;;;;;6315210;27;20076;-75
2022/05/25 17:03:54;;;;;;;5.40;3.95;;;;;;;;;;6316953;28;20066;-75
2022/05/25 17:06:56;;;;;;;;;;;;;;;;;;6317790;28;20101;-75
2022/05/25 17:09:58;;;;;;;8.23;3.72;;;;;;;;;;6317011;28;20138;-74
2022/05/25 17:13:00;;;;;;;7.47;4.40;;;;;;;;;;6315337;28;20109;-73
2022/05/25 17:16:02;;;;;;;6.65;4.13;;;;;;;;;;6322619;28;20055;-74
2022/05/25 17:22:24;;;;;;;8.38;4.40;;;;;;;;;;6324395;28;20230;-74
2022/05/25 17:25:26;;;;;;;7.00;4.10;;;;;;;;;;6322168;28;20054;-75
2022/05/25 17:28:28;;;;;;;4.88;3.70;;;;;;;;;;6321252;28;20063;-75
2022/05/25 17:31:29;;;;;;;6.30;3.95;;;;;;;;;;6324086;28;20085;-75
2022/05/25 17:34:33;;;;;;;6.38;4.20;;;;;;;;;;6323705;28;20212;-75
2022/05/25 17:44:13;;;;;;;8.80;4.38;;;;;;;;;;6321431;28;20040;-72
2022/05/25 17:47:14;;;;;;;7.45;4.55;;;;;;;;;;6322627;28;20046;-71
2022/05/25 17:50:18;;;;;;;7.57;4.18;;;;;;;;;;6322915;28;20072;-70
2022/05/25 17:53:19;;;;;;;;;;;;;;;;;;6323607;28;20379;-71
2022/05/25 17:56:21;;;;;;;7.65;4.38;;;;;;;;;;6321370;27;19916;-70
2022/05/25 17:59:24;;;;;;;7.32;4.88;;;;;;;;;;6322490;28;20048;-71
2022/05/25 18:02:26;;;;;;;6.28;4.50;;;;;;;;;;6319525;28;20052;-71
2022/05/25 18:05:30;;;;;;;6.05;4.70;;;;;;;;;;6323516;28;20047;-71
2022/05/25 18:08:32;;;;;;;8.15;4.57;;;;;;;;;;6320192;28;20111;-71
2022/05/25 18:11:34;;;;;;;7.28;5.40;;;;;;;;;;6320393;28;20044;-71
2022/05/25 18:14:39;;;;;;;6.75;5.50;;;;;;;;;;6322796;28;20056;-71
2022/05/25 18:17:43;;;;;;;9.93;5.18;;;;;;;;;;6320033;28;20082;-71
2022/05/25 18:20:46;;;;;;;10.80;6.75;;;;;;;;;;6321588;28;20063;-71
2022/05/25 18:23:47;;;;;;;10.52;5.65;;;;;;;;;;6322133;27;20056;-71
2022/05/25 18:26:49;;;;;;;7.07;4.95;;;;;;;;;;6323296;28;20343;-70
2022/05/25 18:29:50;;;;;;;7.15;5.18;;;;;;;;;;6321676;28;20055;-71
2022/05/25 18:32:53;;;;;;;10.65;5.80;;;;;;;;;;6324170;27;20039;-71
2022/05/25 18:35:56;;;;;;;9.88;5.53;;;;;;;;;;6326339;28;20071;-71
2022/05/25 18:38:58;;;;;;;7.80;5.50;;;;;;;;;;6323771;28;20044;-70
2022/05/25 18:41:59;;;;;;;8.05;4.95;;;;;;;;;;6320415;28;20111;-71
2022/05/25 18:45:01;;;;;;;5.88;4.93;;;;;;;;;;6322695;28;20096;-71
2022/05/25 18:48:05;;;;;;;7.57;4.80;;;;;;;;;;6323333;28;20230;-70
2022/05/25 18:51:08;;;;;;;8.57;5.20;;;;;;;;;;6321974;27;20055;-71
2022/05/25 18:54:09;;;;;;;5.93;5.03;;;;;;;;;;6318187;28;20056;-71
2022/05/25 18:57:12;;;;;;;10.05;4.75;;;;;;;;;;6321617;28;20065;-72
2022/05/25 19:00:15;;;;;;;9.20;6.25;;;;;;;;;;6317300;27;20052;-72
2022/05/25 19:03:16;;;;;;;;;;;;;;;;;;6325210;28;20060;-72
2022/05/25 19:06:20;;;;;;;11.48;5.38;;;;;;;;;;6317796;28;19939;-71
2022/05/25 19:09:21;;;;;;;11.18;6.88;;;;;;;;;;6320332;27;20048;-72
2022/05/25 19:12:23;;;;;;;10.52;6.28;;;;;;;;;;6319238;28;20190;-72